EGFF/CWL METAR and TAF weather

Enter ICAO airport designator
Station Type Date Time Source
EGFF METAR 2020/01/22 17:50 UTC NOAA

EGFF 221750Z 07007KT 9999 BKN008 BKN015 08/07 Q1036


Station Type Date Time Source
EGFF Decoded METAR 2020/01/22 17:50 UTC NOAA

Cardiff-Wales Airport, United Kingdom (EGFF) 51-24N 003-21W 0M
Jan 22, 2020 - 12:50 PM EST / 2020.01.22 1750 UTC
Wind: from the ENE (070 degrees) at 8 MPH (7 KT):0
Visibility: greater than 7 mile(s):0
Sky conditions: mostly cloudy
Temperature: 46 F (8 C)
Dew Point: 44 F (7 C)
Relative Humidity: 93%
Pressure (altimeter): 30.59 in. Hg (1036 hPa)
ob: EGFF 221750Z 07007KT 9999 BKN008 BKN015 08/07 Q1036
cycle: 18

Station Type Date Time Source
EGFF TAF 2020/01/22 18:12 UTC NOAA

TAF TAF EGFF 221709Z 2218/2318 07005KT 9000 OVC005
BECMG 2218/2221 3000 BR OVC002
TEMPO 2218/2222 0800 FG OVC001 PROB40
TEMPO 2218/2222 0300
BECMG 2301/2304 6000 NSW FEW003 BKN010
TEMPO 2304/2312 4000 BR BKN003
TEMPO 2312/2318 4000 BR

Example: see airport list